createdAt,value
2018-07-08T00:02:56.131Z,37.70
2018-07-08T00:05:23.329Z,37.60
2018-07-08T00:07:50.517Z,37.70
2018-07-08T00:10:18.110Z,37.90
2018-07-08T00:12:45.327Z,37.80
2018-07-08T00:15:12.525Z,37.80
2018-07-08T00:17:40.075Z,37.90
2018-07-08T00:22:34.529Z,38.00
2018-07-08T00:27:28.956Z,38.10
2018-07-08T00:29:56.141Z,38.10
2018-07-08T00:32:23.306Z,38.10
2018-07-08T00:34:50.496Z,38.10
2018-07-08T00:37:17.669Z,38.10
2018-07-08T00:42:14.133Z,38.20
2018-07-08T00:47:08.517Z,38.20
2018-07-08T00:49:35.698Z,38.20
2018-07-08T00:54:30.099Z,38.20
2018-07-08T00:59:26.483Z,38.30
2018-07-08T01:01:53.645Z,38.30
2018-07-08T01:04:20.843Z,38.30
2018-07-08T01:06:48.020Z,38.30
2018-07-08T01:11:42.745Z,38.30
2018-07-08T01:14:09.901Z,38.20
2018-07-08T01:19:04.369Z,38.10
2018-07-08T01:21:31.860Z,38.00
2018-07-08T01:23:59.069Z,38.00
2018-07-08T01:26:26.285Z,37.90
2018-07-08T01:31:21.169Z,38.20
2018-07-08T01:33:48.334Z,37.80
2018-07-08T01:36:15.530Z,37.90
2018-07-08T01:38:42.685Z,37.70
2018-07-08T01:41:09.866Z,37.70
2018-07-08T01:43:37.096Z,37.70
2018-07-08T01:48:32.106Z,37.60
2018-07-08T01:50:59.281Z,37.60
2018-07-08T01:53:26.442Z,37.50
2018-07-08T02:00:48.366Z,37.50
2018-07-08T02:03:16.061Z,37.40
2018-07-08T02:05:43.281Z,37.40
2018-07-08T02:08:10.467Z,37.40
2018-07-08T02:10:37.942Z,37.40
2018-07-08T02:13:05.370Z,37.30
2018-07-08T02:15:32.585Z,37.40
2018-07-08T02:20:27.537Z,37.40
2018-07-08T02:22:54.767Z,37.40
2018-07-08T02:25:21.985Z,37.50
2018-07-08T02:27:49.817Z,37.50
2018-07-08T02:30:17.043Z,37.50
2018-07-08T02:35:11.441Z,37.60
2018-07-08T02:37:38.611Z,37.50
2018-07-08T02:40:06.159Z,37.50
2018-07-08T02:42:33.340Z,37.50
2018-07-08T02:47:28.137Z,37.40
2018-07-08T02:49:55.345Z,37.40
2018-07-08T02:52:22.818Z,37.20
2018-07-08T02:54:50.194Z,37.30
2018-07-08T02:57:17.885Z,37.30
2018-07-08T02:59:45.321Z,37.50
2018-07-08T03:02:12.487Z,37.60
2018-07-08T03:04:39.836Z,37.50
2018-07-08T03:07:07.097Z,37.50
2018-07-08T03:09:34.301Z,37.40
2018-07-08T03:12:01.496Z,37.40
2018-07-08T03:14:29.005Z,37.50
2018-07-08T03:16:56.183Z,37.50
2018-07-08T03:19:23.795Z,37.50
2018-07-08T03:21:51.265Z,37.70
2018-07-08T03:24:18.712Z,37.70
2018-07-08T03:26:45.885Z,37.80
2018-07-08T03:29:13.357Z,37.90
2018-07-08T03:31:40.695Z,38.00
2018-07-08T03:34:07.857Z,38.10
2018-07-08T03:36:35.445Z,38.20
2018-07-08T03:41:30.981Z,38.30
2018-07-08T03:43:58.150Z,38.40
2018-07-08T03:48:52.548Z,38.70
2018-07-08T03:51:19.725Z,38.80
2018-07-08T03:56:14.525Z,38.90
2018-07-08T03:58:41.693Z,38.90
2018-07-08T04:01:08.892Z,39.00
2018-07-08T04:03:36.066Z,39.10
2018-07-08T04:06:03.225Z,39.10
2018-07-08T04:08:30.386Z,39.10
2018-07-08T04:10:57.577Z,39.10
2018-07-08T04:15:51.961Z,39.20
2018-07-08T04:18:19.441Z,39.30
2018-07-08T04:20:46.629Z,39.30
2018-07-08T04:25:41.313Z,39.30
2018-07-08T04:28:08.481Z,39.30
2018-07-08T04:33:02.900Z,39.20
2018-07-08T04:37:58.189Z,39.50
2018-07-08T04:40:25.357Z,39.20
2018-07-08T04:42:52.522Z,39.20
2018-07-08T04:45:19.993Z,39.30
2018-07-08T04:47:47.158Z,39.30
2018-07-08T04:50:14.321Z,39.40
2018-07-08T04:55:08.981Z,39.60
2018-07-08T04:57:36.341Z,39.90
2018-07-08T05:00:03.808Z,39.60
2018-07-08T05:02:30.985Z,39.70
2018-07-08T05:04:58.229Z,39.50
2018-07-08T05:07:25.385Z,39.40
2018-07-08T05:09:52.833Z,39.40
2018-07-08T05:12:19.991Z,39.30
2018-07-08T05:14:47.149Z,39.20
2018-07-08T05:17:14.318Z,39.10
2018-07-08T05:19:41.763Z,39.10
2018-07-08T05:22:08.921Z,38.90
2018-07-08T05:24:36.109Z,39.00
2018-07-08T05:27:03.269Z,39.00
2018-07-08T05:29:30.471Z,39.00
2018-07-08T05:31:57.623Z,38.90
2018-07-08T05:34:24.787Z,38.90
2018-07-08T05:36:52.425Z,38.80
2018-07-08T05:39:19.623Z,38.80
2018-07-08T05:41:46.777Z,39.20
2018-07-08T05:44:14.277Z,38.80
2018-07-08T05:46:41.446Z,38.80
2018-07-08T05:49:08.607Z,38.80
2018-07-08T05:51:36.153Z,38.80
2018-07-08T05:54:03.325Z,38.70
2018-07-08T05:56:32.126Z,38.70
2018-07-08T06:01:26.518Z,38.50
2018-07-08T06:03:53.694Z,38.60
2018-07-08T06:08:48.085Z,38.40
2018-07-08T06:11:15.270Z,38.40
2018-07-08T06:16:09.817Z,38.30
2018-07-08T06:18:37.005Z,38.30
2018-07-08T06:21:04.497Z,38.20
2018-07-08T06:23:31.629Z,38.00
2018-07-08T06:25:58.957Z,38.00
2018-07-08T06:28:26.349Z,38.00
2018-07-08T06:30:53.514Z,38.00
2018-07-08T06:33:20.677Z,38.10
2018-07-08T06:35:47.850Z,38.10
2018-07-08T06:40:42.246Z,38.20
2018-07-08T06:43:09.394Z,38.10
2018-07-08T06:45:36.580Z,37.90
2018-07-08T06:48:03.777Z,37.60
2018-07-08T06:50:31.217Z,37.60
2018-07-08T06:52:58.393Z,37.50
2018-07-08T06:55:25.550Z,37.40
2018-07-08T06:57:54.337Z,37.30
2018-07-08T07:00:21.477Z,37.20
2018-07-08T07:02:48.669Z,37.00
2018-07-08T07:05:19.925Z,36.80
2018-07-08T07:07:47.089Z,36.50
2018-07-08T07:10:14.260Z,36.50
2018-07-08T07:15:10.701Z,37.70
2018-07-08T07:17:37.861Z,37.00
2018-07-08T07:22:32.248Z,37.10
2018-07-08T07:24:59.409Z,36.60
2018-07-08T07:27:26.881Z,36.50
2018-07-08T07:29:54.057Z,36.40
2018-07-08T07:34:50.402Z,36.50
2018-07-08T07:37:17.557Z,36.20
2018-07-08T07:39:44.712Z,36.30
2018-07-08T07:42:11.897Z,36.20
2018-07-08T07:47:06.279Z,35.70
2018-07-08T07:49:33.462Z,35.80
2018-07-08T07:54:28.269Z,35.70
2018-07-08T07:56:55.413Z,35.80
2018-07-08T07:59:22.573Z,35.70
2018-07-08T08:01:55.762Z,35.90
2018-07-08T08:04:22.948Z,35.60
2018-07-08T08:09:17.305Z,35.70
2018-07-08T08:11:44.457Z,35.60
2018-07-08T08:14:11.687Z,35.30
2018-07-08T08:16:38.849Z,35.20
2018-07-08T08:19:06.015Z,35.00
2018-07-08T08:21:33.185Z,34.40
2018-07-08T08:24:00.351Z,34.30
2018-07-08T08:26:28.572Z,34.20
2018-07-08T08:28:55.701Z,34.40
2018-07-08T08:31:22.861Z,34.10
2018-07-08T08:35:07.768Z,34.00
2018-07-08T08:37:36.869Z,34.40
2018-07-08T08:40:04.453Z,34.40
2018-07-08T08:42:31.622Z,34.50
2018-07-08T08:44:59.232Z,34.50
2018-07-08T08:47:26.859Z,34.50
2018-07-08T08:49:54.581Z,34.40
2018-07-08T08:52:21.773Z,34.30
2018-07-08T08:54:49.097Z,34.10
2018-07-08T08:57:16.271Z,33.90
2018-07-08T08:59:43.447Z,34.00
2018-07-08T09:02:10.749Z,34.40
2018-07-08T09:04:38.973Z,34.10
2018-07-08T09:07:06.717Z,34.20
2018-07-08T09:09:33.957Z,34.20
2018-07-08T09:12:01.463Z,34.60
2018-07-08T09:14:28.617Z,34.40
2018-07-08T09:16:55.773Z,34.60
2018-07-08T09:19:23.848Z,34.80
2018-07-08T09:21:51.690Z,35.10
2018-07-08T09:24:18.864Z,34.80
2018-07-08T09:26:46.049Z,34.70
2018-07-08T09:29:13.239Z,34.60
2018-07-08T09:31:40.396Z,34.60
2018-07-08T09:34:07.574Z,34.70
2018-07-08T09:36:35.310Z,34.90
2018-07-08T09:39:03.547Z,35.00
2018-07-08T09:41:30.684Z,35.10
2018-07-08T09:43:57.880Z,35.20
2018-07-08T09:48:52.303Z,35.10
2018-07-08T09:53:46.653Z,35.00
2018-07-08T09:56:14.355Z,35.00
2018-07-08T09:58:41.517Z,34.60
2018-07-08T10:01:08.686Z,34.80
2018-07-08T10:06:04.573Z,34.80
2018-07-08T10:08:32.146Z,34.80
2018-07-08T10:10:59.708Z,34.60
2018-07-08T10:13:26.961Z,34.30
2018-07-08T10:15:54.125Z,34.10
2018-07-08T10:18:21.310Z,34.00
2018-07-08T10:20:48.493Z,34.00
2018-07-08T10:23:15.789Z,34.10
2018-07-08T10:25:43.570Z,34.20
2018-07-08T10:28:12.361Z,34.40
2018-07-08T10:30:40.089Z,34.20
2018-07-08T10:35:46.483Z,34.30
2018-07-08T10:38:13.686Z,34.30
2018-07-08T10:40:41.106Z,34.20
2018-07-08T10:43:08.269Z,33.90
2018-07-08T10:45:35.449Z,33.90
2018-07-08T10:48:02.933Z,33.90
2018-07-08T10:50:32.155Z,34.10
2018-07-08T10:52:59.305Z,34.10
2018-07-08T10:55:26.929Z,34.10
2018-07-08T10:57:54.021Z,34.10
2018-07-08T11:02:52.517Z,34.20
2018-07-08T11:05:19.671Z,34.20
2018-07-08T11:07:46.829Z,34.30
2018-07-08T11:10:14.397Z,34.30
2018-07-08T11:12:41.542Z,34.40
2018-07-08T11:15:08.704Z,34.40
2018-07-08T11:17:36.681Z,34.30
2018-07-08T11:20:03.853Z,34.20
2018-07-08T11:24:58.962Z,34.10
2018-07-08T11:27:26.242Z,34.00
2018-07-08T11:32:20.845Z,33.90
2018-07-08T11:34:48.014Z,33.90
2018-07-08T11:37:16.054Z,34.10
2018-07-08T11:39:43.205Z,34.20
2018-07-08T11:42:10.397Z,34.30
2018-07-08T11:44:38.158Z,34.20
2018-07-08T11:47:05.331Z,34.10
2018-07-08T11:51:59.925Z,33.90
2018-07-08T11:54:27.494Z,33.60
2018-07-08T11:56:54.651Z,33.60
2018-07-08T11:59:21.805Z,33.40
2018-07-08T12:01:48.990Z,33.00
2018-07-08T12:06:43.821Z,32.90
2018-07-08T12:11:38.607Z,32.40
2018-07-08T12:14:05.761Z,32.40
2018-07-08T12:16:32.917Z,32.30
2018-07-08T12:19:00.586Z,32.20
2018-07-08T12:21:27.749Z,32.10
2018-07-08T12:23:54.901Z,32.10
2018-07-08T12:26:22.462Z,32.10
2018-07-08T12:28:49.753Z,31.70
2018-07-08T12:33:44.133Z,31.10
2018-07-08T12:36:11.292Z,30.70
2018-07-08T12:38:38.785Z,30.90
2018-07-08T12:43:33.141Z,30.60
2018-07-08T12:46:04.305Z,30.50
2018-07-08T12:48:31.629Z,30.40
2018-07-08T12:50:58.797Z,30.30
2018-07-08T12:53:25.966Z,30.40
2018-07-08T12:55:53.131Z,30.40
2018-07-08T12:58:20.320Z,30.20
2018-07-08T13:03:15.010Z,30.30
2018-07-08T13:05:42.347Z,30.60
2018-07-08T13:08:09.520Z,30.80
2018-07-08T13:10:36.722Z,31.10
2018-07-08T13:13:03.897Z,31.30
2018-07-08T13:15:31.097Z,30.70
2018-07-08T13:17:58.600Z,30.50
2018-07-08T13:22:52.969Z,30.80
2018-07-08T13:25:20.435Z,30.50
2018-07-08T13:27:47.654Z,30.60
2018-07-08T13:30:14.909Z,30.70
2018-07-08T13:32:42.269Z,30.40
2018-07-08T13:35:09.396Z,30.50
2018-07-08T13:37:36.573Z,30.60
2018-07-08T13:40:04.161Z,30.50
2018-07-08T13:42:31.344Z,30.60
2018-07-08T13:44:58.506Z,30.80
2018-07-08T13:47:25.730Z,30.70
2018-07-08T13:52:20.035Z,30.60
2018-07-08T13:54:47.529Z,30.50
2018-07-08T13:57:14.698Z,30.30
2018-07-08T13:59:41.915Z,30.50
2018-07-08T14:02:09.091Z,30.70
2018-07-08T14:04:36.325Z,30.90
2018-07-08T14:07:03.528Z,30.90
2018-07-08T14:09:31.605Z,31.00
2018-07-08T14:14:26.020Z,30.50
2018-07-08T14:19:20.767Z,30.90
2018-07-08T14:21:47.966Z,30.70
2018-07-08T14:24:15.541Z,30.90
2018-07-08T14:26:42.721Z,30.90
2018-07-08T14:31:37.421Z,31.20
2018-07-08T14:34:04.645Z,30.70
2018-07-08T14:36:31.819Z,30.80
2018-07-08T14:38:59.017Z,30.80
2018-07-08T14:43:53.434Z,30.90
2018-07-08T14:48:48.106Z,30.90
2018-07-08T14:51:15.285Z,30.90
2018-07-08T14:56:09.678Z,30.80
2018-07-08T14:58:36.859Z,31.00
2018-07-08T15:01:04.036Z,30.90
2018-07-08T15:03:31.213Z,31.10
2018-07-08T15:05:58.385Z,31.10
2018-07-08T15:08:25.977Z,31.00
2018-07-08T15:10:53.141Z,31.00
2018-07-08T15:13:20.302Z,31.10
2018-07-08T15:18:15.137Z,31.60
2018-07-08T15:23:09.562Z,31.30
2018-07-08T15:25:36.761Z,31.30
2018-07-08T15:28:03.940Z,31.20
2018-07-08T15:32:59.819Z,31.20
2018-07-08T15:37:54.218Z,31.30
2018-07-08T15:42:48.942Z,31.30
2018-07-08T15:47:43.305Z,31.50
2018-07-08T15:50:10.469Z,31.50
2018-07-08T15:52:37.669Z,31.60
2018-07-08T15:57:34.521Z,31.60
2018-07-08T16:00:01.678Z,31.70
2018-07-08T16:07:25.806Z,32.10
2018-07-08T16:09:53.365Z,31.80
2018-07-08T16:12:20.550Z,31.80
2018-07-08T16:17:14.937Z,31.70
2018-07-08T16:19:42.098Z,31.80
2018-07-08T16:24:36.490Z,32.20
2018-07-08T16:27:03.646Z,31.80
2018-07-08T16:29:30.817Z,31.80
2018-07-08T16:31:58.886Z,31.80
2018-07-08T16:34:26.042Z,31.80
2018-07-08T16:36:53.218Z,31.80
2018-07-08T16:41:47.929Z,31.80
2018-07-08T16:44:15.107Z,31.90
2018-07-08T16:49:09.839Z,32.00
2018-07-08T16:51:37.088Z,31.90
2018-07-08T16:54:04.342Z,31.90
2018-07-08T16:56:31.526Z,31.90
2018-07-08T16:58:58.753Z,31.90
2018-07-08T17:03:53.458Z,32.20
2018-07-08T17:06:20.615Z,32.20
2018-07-08T17:11:17.365Z,32.40
2018-07-08T17:13:44.532Z,32.40
2018-07-08T17:18:38.968Z,32.50
2018-07-08T17:23:33.582Z,32.40
2018-07-08T17:26:00.755Z,32.50
2018-07-08T17:28:27.917Z,32.40
2018-07-08T17:30:55.087Z,32.50
2018-07-08T17:33:22.389Z,32.50
2018-07-08T17:35:49.438Z,32.60
2018-07-08T17:38:16.613Z,32.60
2018-07-08T17:43:10.990Z,32.70
2018-07-08T17:45:38.429Z,32.70
2018-07-08T17:48:05.585Z,33.10
2018-07-08T17:50:32.833Z,33.10
2018-07-08T17:53:01.157Z,33.00
2018-07-08T17:55:28.333Z,33.10
2018-07-08T18:00:23.002Z,33.60
2018-07-08T18:02:50.154Z,33.80
2018-07-08T18:05:17.541Z,33.60
2018-07-08T18:07:45.106Z,33.70
2018-07-08T18:10:12.324Z,33.80
2018-07-08T18:12:39.494Z,33.80
2018-07-08T18:15:06.673Z,33.80
2018-07-08T18:17:33.899Z,33.90
2018-07-08T18:20:01.065Z,33.90
2018-07-08T18:22:28.565Z,33.80
2018-07-08T18:24:55.753Z,33.70
2018-07-08T18:27:22.925Z,33.60
2018-07-08T18:29:51.042Z,33.90
2018-07-08T18:32:18.211Z,34.00
2018-07-08T18:34:45.380Z,34.10
2018-07-08T18:39:44.654Z,33.80
2018-07-08T18:42:11.841Z,34.10
2018-07-08T18:44:39.299Z,34.20
2018-07-08T18:47:06.467Z,34.10
2018-07-08T18:49:33.674Z,34.00
2018-07-08T18:52:00.907Z,34.00
2018-07-08T18:54:28.093Z,34.10
2018-07-08T18:56:55.279Z,33.90
2018-07-08T18:59:22.946Z,34.00
2018-07-08T19:01:50.011Z,34.00
2018-07-08T19:06:49.629Z,34.20
2018-07-08T19:09:16.798Z,34.20
2018-07-08T19:11:44.073Z,34.00
2018-07-08T19:16:38.882Z,33.90
2018-07-08T19:21:37.886Z,33.90
2018-07-08T19:24:05.324Z,33.80
2018-07-08T19:26:32.544Z,33.80
2018-07-08T19:29:00.152Z,33.80
2018-07-08T19:31:27.348Z,33.90
2018-07-08T19:36:22.024Z,33.70
2018-07-08T19:38:49.219Z,33.90
2018-07-08T19:43:44.061Z,34.30
2018-07-08T19:46:11.261Z,34.00
2018-07-08T19:48:38.446Z,33.90
2018-07-08T19:51:06.005Z,34.00
2018-07-08T19:53:33.211Z,34.40
2018-07-08T19:56:00.598Z,34.20
2018-07-08T19:58:28.132Z,34.10
2018-07-08T20:00:55.336Z,34.10
2018-07-08T20:05:51.389Z,34.10
2018-07-08T20:08:18.673Z,34.10
2018-07-08T20:10:45.873Z,34.00
2018-07-08T20:13:13.074Z,34.00
2018-07-08T20:15:40.290Z,33.90
2018-07-08T20:18:07.785Z,34.00
2018-07-08T20:20:34.962Z,34.00
2018-07-08T20:25:29.402Z,34.20
2018-07-08T20:27:56.981Z,34.00
2018-07-08T20:30:24.173Z,34.00
2018-07-08T20:32:51.350Z,34.10
2018-07-08T20:37:45.789Z,34.20
2018-07-08T20:40:13.025Z,34.30
2018-07-08T20:45:07.669Z,34.30
2018-07-08T20:47:35.290Z,34.30
2018-07-08T20:50:02.763Z,34.50
2018-07-08T20:54:57.213Z,34.80
2018-07-08T20:57:24.406Z,34.50
2018-07-08T20:59:52.525Z,34.60
2018-07-08T21:02:20.062Z,34.90
2018-07-08T21:04:47.246Z,34.90
2018-07-08T21:07:14.427Z,34.80
2018-07-08T21:09:41.637Z,35.10
2018-07-08T21:12:08.815Z,34.80
2018-07-08T21:17:05.325Z,34.90
2018-07-08T21:19:32.861Z,35.00
2018-07-08T21:22:00.070Z,34.80
2018-07-08T21:24:27.249Z,34.90
2018-07-08T21:29:21.813Z,34.90
2018-07-08T21:31:49.053Z,35.00
2018-07-08T21:34:16.252Z,35.00
2018-07-08T21:36:44.234Z,35.10
2018-07-08T21:39:11.461Z,35.10
2018-07-08T21:41:39.543Z,35.10
2018-07-08T21:44:07.104Z,35.20
2018-07-08T21:46:34.273Z,35.20
2018-07-08T21:49:01.450Z,35.20
2018-07-08T21:51:28.643Z,35.30
2018-07-08T21:53:55.792Z,35.20
2018-07-08T21:56:23.005Z,35.30
2018-07-08T21:58:50.342Z,35.40
2018-07-08T22:01:18.831Z,35.40
2018-07-08T22:03:46.452Z,35.50
2018-07-08T22:06:14.804Z,35.50
2018-07-08T22:08:42.022Z,35.50
2018-07-08T22:11:09.701Z,35.60
2018-07-08T22:13:37.705Z,35.60
2018-07-08T22:16:04.892Z,35.70
2018-07-08T22:18:32.486Z,35.80
2018-07-08T22:20:59.962Z,35.90
2018-07-08T22:23:27.169Z,35.90
2018-07-08T22:30:49.217Z,36.10
2018-07-08T22:33:16.402Z,36.10
2018-07-08T22:38:11.434Z,36.20
2018-07-08T22:43:06.227Z,36.30
2018-07-08T22:45:33.853Z,36.10
2018-07-08T22:48:01.372Z,36.40
2018-07-08T22:50:28.554Z,36.50
2018-07-08T22:52:55.731Z,36.20
2018-07-08T22:55:22.901Z,36.70
2018-07-08T22:57:50.485Z,36.80
2018-07-08T23:00:29.361Z,36.80
2018-07-08T23:03:10.814Z,36.90
2018-07-08T23:08:05.492Z,37.00
2018-07-08T23:10:32.673Z,37.10
2018-07-08T23:12:59.857Z,37.10
2018-07-08T23:15:27.074Z,37.30
2018-07-08T23:17:56.589Z,37.30
2018-07-08T23:20:23.771Z,37.40
2018-07-08T23:22:55.677Z,37.50
2018-07-08T23:25:23.173Z,37.60
2018-07-08T23:27:50.345Z,37.70
2018-07-08T23:30:17.528Z,37.80
2018-07-08T23:32:45.046Z,37.80
2018-07-08T23:35:12.217Z,38.00
2018-07-08T23:37:39.389Z,38.10
2018-07-08T23:40:06.570Z,38.10
2018-07-08T23:42:34.081Z,38.30
2018-07-08T23:50:00.155Z,38.50
2018-07-08T23:52:27.485Z,38.70
2018-07-08T23:54:54.690Z,38.70
2018-07-08T23:59:49.418Z,38.90
